OAL463 RJCC-RJTT
Flight info
| Callsign | OAL463 |
|---|---|
| Flight time | 1h 27m |
| Altitude | 24000 |
| Route | DALBI Y120 RURUD Y125 METEL Y102 SDE Y106 RUBIS Y10 GODIN |
| Aircraft | B77L/H-SDE1E2E3FGHIJ2J3J4J5M1RWXY/LB1D1 |
Departure
| Time | 2026-02-17 06:40 |
|---|---|
| Airport | New Chitose Airport (RJCC) |
Arrival
| Time | 2026-02-17 08:07 |
|---|---|
| Airport | Tokyo Haneda International Airport (RJTT) |
| Time | Latitude | Longitude | Altitude | Speed | Heading |
|---|---|---|---|---|---|
| 2026-02-17 06:28 | 42.79046 | 141.67824 | 72 ft | 0 kts | 172° |
| 2026-02-17 06:35 | 42.79058 | 141.67822 | 62 ft | 3 kts | 172° |
| 2026-02-17 06:35 | 42.79078 | 141.67818 | 72 ft | 3 kts | 172° |
| 2026-02-17 06:36 | 42.79098 | 141.67813 | 62 ft | 3 kts | 155° |
| 2026-02-17 06:36 | 42.79114 | 141.67797 | 62 ft | 3 kts | 124° |
| 2026-02-17 06:36 | 42.79124 | 141.67773 | 62 ft | 3 kts | 98° |
| 2026-02-17 06:36 | 42.79124 | 141.67745 | 72 ft | 3 kts | 84° |
| 2026-02-17 06:37 | 42.79123 | 141.67734 | 63 ft | 0 kts | 83° |
| 2026-02-17 06:37 | 42.79123 | 141.67735 | 72 ft | 1 kts | 83° |
| 2026-02-17 06:37 | 42.79128 | 141.67785 | 64 ft | 13 kts | 82° |
| 2026-02-17 06:38 | 42.79128 | 141.67972 | 63 ft | 23 kts | 99° |
| 2026-02-17 06:38 | 42.79055 | 141.68179 | 65 ft | 27 kts | 127° |
| 2026-02-17 06:38 | 42.78942 | 141.68337 | 62 ft | 22 kts | 149° |
| 2026-02-17 06:39 | 42.78807 | 141.68563 | 70 ft | 20 kts | 75° |
| 2026-02-17 06:39 | 42.78823 | 141.68733 | 64 ft | 13 kts | 86° |
| 2026-02-17 06:39 | 42.78778 | 141.68827 | 64 ft | 14 kts | 164° |
| 2026-02-17 06:39 | 42.78573 | 141.68861 | 64 ft | 56 kts | 173° |
| 2026-02-17 06:40 | 42.77930 | 141.68974 | 63 ft | 128 kts | 172° |
| 2026-02-17 06:40 | 42.76867 | 141.69177 | 150 ft | 171 kts | 171° |
| 2026-02-17 06:40 | 42.75659 | 141.69416 | 582 ft | 181 kts | 171° |
| 2026-02-17 06:40 | 42.74374 | 141.69656 | 1117 ft | 188 kts | 171° |
| 2026-02-17 06:41 | 42.73072 | 141.69901 | 1804 ft | 193 kts | 171° |
| 2026-02-17 06:41 | 42.71674 | 141.70162 | 2378 ft | 207 kts | 171° |
| 2026-02-17 06:41 | 42.70255 | 141.70429 | 3188 ft | 209 kts | 173° |
| 2026-02-17 06:41 | 42.68743 | 141.70718 | 3767 ft | 228 kts | 174° |
| 2026-02-17 06:42 | 42.67137 | 141.71028 | 4498 ft | 238 kts | 175° |
| 2026-02-17 06:42 | 42.65452 | 141.71354 | 5194 ft | 251 kts | 175° |
| 2026-02-17 06:42 | 42.63680 | 141.71702 | 5889 ft | 263 kts | 175° |
| 2026-02-17 06:43 | 42.59972 | 141.72415 | 7545 ft | 272 kts | 179° |
| 2026-02-17 06:43 | 42.58120 | 141.72043 | 8252 ft | 270 kts | 210° |
| 2026-02-17 06:43 | 42.56685 | 141.70466 | 9083 ft | 266 kts | 236° |
| 2026-02-17 06:43 | 42.55719 | 141.68333 | 9828 ft | 269 kts | 243° |
| 2026-02-17 06:44 | 42.54815 | 141.66086 | 10640 ft | 272 kts | 244° |
| 2026-02-17 06:44 | 42.53915 | 141.63806 | 11492 ft | 276 kts | 244° |
| 2026-02-17 06:44 | 42.53006 | 141.61501 | 12288 ft | 279 kts | 244° |
| 2026-02-17 06:44 | 42.52083 | 141.59168 | 13076 ft | 282 kts | 244° |
| 2026-02-17 06:45 | 42.51147 | 141.56820 | 13878 ft | 284 kts | 244° |
| 2026-02-17 06:45 | 42.50203 | 141.54454 | 14670 ft | 286 kts | 244° |
| 2026-02-17 06:45 | 42.49250 | 141.52072 | 15427 ft | 289 kts | 244° |
| 2026-02-17 06:45 | 42.48285 | 141.49668 | 16168 ft | 292 kts | 244° |
| 2026-02-17 06:46 | 42.47310 | 141.47246 | 16909 ft | 294 kts | 244° |
| 2026-02-17 06:46 | 42.46339 | 141.44838 | 17612 ft | 296 kts | 244° |
| 2026-02-17 06:46 | 42.45333 | 141.42346 | 18323 ft | 299 kts | 244° |
| 2026-02-17 06:47 | 42.43311 | 141.37337 | 19305 ft | 319 kts | 244° |
| 2026-02-17 06:47 | 42.42217 | 141.34628 | 19547 ft | 336 kts | 243° |
| 2026-02-17 06:47 | 42.41075 | 141.31810 | 20020 ft | 345 kts | 243° |
| 2026-02-17 06:47 | 42.39909 | 141.28939 | 20631 ft | 350 kts | 243° |
| 2026-02-17 06:48 | 42.38730 | 141.26040 | 21312 ft | 353 kts | 243° |
| 2026-02-17 06:48 | 42.37541 | 141.23120 | 22019 ft | 355 kts | 243° |
| 2026-02-17 06:48 | 42.36348 | 141.20187 | 22683 ft | 357 kts | 243° |
| 2026-02-17 06:48 | 42.35142 | 141.17224 | 23260 ft | 362 kts | 243° |
| 2026-02-17 06:49 | 42.33917 | 141.14220 | 23853 ft | 366 kts | 243° |
| 2026-02-17 06:49 | 42.32685 | 141.11202 | 24480 ft | 368 kts | 243° |
| 2026-02-17 06:49 | 42.31442 | 141.08162 | 25095 ft | 370 kts | 243° |
| 2026-02-17 06:49 | 42.30209 | 141.05147 | 25693 ft | 372 kts | 243° |
| 2026-02-17 06:50 | 42.28952 | 141.02076 | 26291 ft | 375 kts | 243° |
| 2026-02-17 06:50 | 42.27728 | 140.99091 | 26845 ft | 377 kts | 243° |
| 2026-02-17 06:50 | 42.26450 | 140.95976 | 27390 ft | 380 kts | 243° |
| 2026-02-17 06:51 | 42.23876 | 140.89713 | 28484 ft | 384 kts | 244° |
| 2026-02-17 06:51 | 42.22576 | 140.86554 | 28995 ft | 386 kts | 244° |
| 2026-02-17 06:51 | 42.21264 | 140.83368 | 29511 ft | 389 kts | 244° |
| 2026-02-17 06:51 | 42.19943 | 140.80171 | 29991 ft | 391 kts | 244° |
| 2026-02-17 06:52 | 42.18610 | 140.76954 | 30444 ft | 394 kts | 244° |
| 2026-02-17 06:52 | 42.17266 | 140.73722 | 30908 ft | 396 kts | 244° |
| 2026-02-17 06:52 | 42.15912 | 140.70468 | 31357 ft | 398 kts | 244° |
| 2026-02-17 06:52 | 42.14554 | 140.67202 | 31770 ft | 400 kts | 244° |
| 2026-02-17 06:53 | 42.13183 | 140.63909 | 32127 ft | 403 kts | 244° |
| 2026-02-17 06:53 | 42.10401 | 140.57233 | 32119 ft | 420 kts | 243° |
| 2026-02-17 06:53 | 42.08722 | 140.53997 | 32097 ft | 430 kts | 229° |
| 2026-02-17 06:54 | 42.06384 | 140.51396 | 32117 ft | 444 kts | 217° |
| 2026-02-17 06:54 | 42.03564 | 140.49576 | 32093 ft | 456 kts | 202° |
| 2026-02-17 06:54 | 42.00499 | 140.48438 | 32125 ft | 459 kts | 200° |
| 2026-02-17 06:55 | 41.91199 | 140.45160 | 32101 ft | 461 kts | 200° |
| 2026-02-17 06:55 | 41.85012 | 140.42877 | 32102 ft | 459 kts | 201° |
| 2026-02-17 06:56 | 41.78859 | 140.40574 | 32095 ft | 458 kts | 201° |
| 2026-02-17 06:56 | 41.72738 | 140.38283 | 32093 ft | 456 kts | 201° |
| 2026-02-17 06:57 | 41.67667 | 140.36395 | 32113 ft | 454 kts | 201° |
| 2026-02-17 06:57 | 41.60482 | 140.34012 | 32096 ft | 459 kts | 193° |
| 2026-02-17 06:58 | 41.55157 | 140.33496 | 32109 ft | 465 kts | 185° |
| 2026-02-17 06:59 | 41.45410 | 140.34450 | 32118 ft | 470 kts | 180° |
| 2026-02-17 06:59 | 41.38893 | 140.35198 | 32104 ft | 471 kts | 181° |
| 2026-02-17 07:00 | 41.32352 | 140.35912 | 32114 ft | 472 kts | 181° |
| 2026-02-17 07:00 | 41.25848 | 140.36600 | 32117 ft | 472 kts | 181° |
| 2026-02-17 07:01 | 41.19301 | 140.37286 | 32113 ft | 471 kts | 181° |
| 2026-02-17 07:01 | 41.12775 | 140.37975 | 32120 ft | 470 kts | 181° |
| 2026-02-17 07:02 | 41.06241 | 140.38667 | 32108 ft | 471 kts | 181° |
| 2026-02-17 07:02 | 40.99710 | 140.39352 | 32114 ft | 472 kts | 181° |
| 2026-02-17 07:03 | 40.89883 | 140.40379 | 32103 ft | 472 kts | 182° |
| 2026-02-17 07:03 | 40.83372 | 140.41058 | 32112 ft | 472 kts | 181° |
| 2026-02-17 07:04 | 40.76832 | 140.41739 | 32102 ft | 471 kts | 182° |
| 2026-02-17 07:04 | 40.70277 | 140.42423 | 32112 ft | 471 kts | 182° |
| 2026-02-17 07:05 | 40.63740 | 140.43101 | 32122 ft | 471 kts | 182° |
| 2026-02-17 07:05 | 40.57196 | 140.43781 | 32111 ft | 471 kts | 182° |
| 2026-02-17 07:06 | 40.50704 | 140.44455 | 32115 ft | 470 kts | 182° |
| 2026-02-17 07:07 | 40.40915 | 140.45507 | 32126 ft | 472 kts | 180° |
| 2026-02-17 07:07 | 40.34426 | 140.47225 | 32139 ft | 478 kts | 173° |
| 2026-02-17 07:08 | 40.27954 | 140.49228 | 32138 ft | 478 kts | 173° |
| 2026-02-17 07:08 | 40.21463 | 140.51192 | 32149 ft | 478 kts | 174° |
| 2026-02-17 07:09 | 40.14970 | 140.53116 | 32150 ft | 478 kts | 174° |
| 2026-02-17 07:09 | 40.08464 | 140.55040 | 32151 ft | 480 kts | 174° |
| 2026-02-17 07:10 | 40.01992 | 140.56952 | 32140 ft | 480 kts | 174° |
| 2026-02-17 07:10 | 39.95500 | 140.58867 | 32136 ft | 479 kts | 174° |
| 2026-02-17 07:11 | 39.85745 | 140.61705 | 32147 ft | 479 kts | 175° |
| 2026-02-17 07:11 | 39.79243 | 140.63588 | 32156 ft | 479 kts | 175° |
| 2026-02-17 07:12 | 39.72733 | 140.65472 | 32142 ft | 479 kts | 175° |
| 2026-02-17 07:12 | 39.66228 | 140.67348 | 32143 ft | 479 kts | 175° |
| 2026-02-17 07:13 | 39.59715 | 140.69228 | 32152 ft | 479 kts | 175° |
| 2026-02-17 07:13 | 39.53200 | 140.71108 | 32156 ft | 479 kts | 175° |
| 2026-02-17 07:14 | 39.46676 | 140.72981 | 32131 ft | 480 kts | 175° |
| 2026-02-17 07:15 | 39.36906 | 140.75794 | 32137 ft | 480 kts | 175° |
| 2026-02-17 07:15 | 39.30388 | 140.77685 | 32136 ft | 480 kts | 175° |
| 2026-02-17 07:16 | 39.23872 | 140.79555 | 32134 ft | 480 kts | 176° |
| 2026-02-17 07:16 | 39.17362 | 140.81422 | 32144 ft | 478 kts | 176° |
| 2026-02-17 07:17 | 39.10874 | 140.83289 | 32136 ft | 481 kts | 176° |
| 2026-02-17 07:17 | 39.04318 | 140.85165 | 32141 ft | 482 kts | 176° |
| 2026-02-17 07:18 | 38.97779 | 140.87031 | 32155 ft | 482 kts | 176° |
| 2026-02-17 07:18 | 38.91223 | 140.88897 | 32147 ft | 483 kts | 176° |
| 2026-02-17 07:19 | 38.81418 | 140.91688 | 32151 ft | 483 kts | 176° |
| 2026-02-17 07:19 | 38.74845 | 140.93554 | 32146 ft | 483 kts | 177° |
| 2026-02-17 07:20 | 38.68270 | 140.95390 | 32158 ft | 482 kts | 177° |
| 2026-02-17 07:20 | 38.61709 | 140.97221 | 32154 ft | 482 kts | 177° |
| 2026-02-17 07:21 | 38.55169 | 140.98312 | 32158 ft | 466 kts | 188° |
| 2026-02-17 07:21 | 38.48794 | 140.97868 | 32157 ft | 453 kts | 197° |
| 2026-02-17 07:22 | 38.42538 | 140.96782 | 32156 ft | 453 kts | 197° |
| 2026-02-17 07:23 | 38.33155 | 140.95215 | 32150 ft | 454 kts | 197° |
| 2026-02-17 07:23 | 38.23789 | 140.93700 | 32157 ft | 453 kts | 197° |
| 2026-02-17 07:24 | 38.17544 | 140.92615 | 32157 ft | 448 kts | 201° |
| 2026-02-17 07:24 | 38.11726 | 140.90257 | 32165 ft | 433 kts | 212° |
| 2026-02-17 07:25 | 38.06479 | 140.86738 | 32165 ft | 424 kts | 219° |
| 2026-02-17 07:25 | 38.01390 | 140.82944 | 32160 ft | 424 kts | 219° |
| 2026-02-17 07:26 | 37.96329 | 140.79208 | 32161 ft | 423 kts | 219° |
| 2026-02-17 07:27 | 37.88703 | 140.73632 | 32140 ft | 419 kts | 219° |
| 2026-02-17 07:27 | 37.83667 | 140.69957 | 32143 ft | 417 kts | 220° |
| 2026-02-17 07:28 | 37.78643 | 140.66300 | 32152 ft | 417 kts | 219° |
| 2026-02-17 07:28 | 37.73244 | 140.63285 | 32132 ft | 431 kts | 210° |
| 2026-02-17 07:29 | 37.67391 | 140.61295 | 32120 ft | 433 kts | 204° |
| 2026-02-17 07:29 | 37.64493 | 140.60493 | 32096 ft | 420 kts | 204° |
| 2026-02-17 07:29 | 37.61670 | 140.59719 | 32102 ft | 412 kts | 204° |
| 2026-02-17 07:30 | 37.56090 | 140.58140 | 32093 ft | 411 kts | 205° |
| 2026-02-17 07:30 | 37.50563 | 140.56550 | 32098 ft | 409 kts | 205° |
| 2026-02-17 07:31 | 37.42242 | 140.54172 | 32093 ft | 408 kts | 205° |
| 2026-02-17 07:31 | 37.36713 | 140.52590 | 32094 ft | 407 kts | 205° |
| 2026-02-17 07:32 | 37.31181 | 140.51013 | 32090 ft | 407 kts | 205° |
| 2026-02-17 07:32 | 37.25658 | 140.49439 | 32064 ft | 407 kts | 205° |
| 2026-02-17 07:33 | 37.20166 | 140.47870 | 31895 ft | 400 kts | 205° |
| 2026-02-17 07:33 | 37.17462 | 140.47096 | 31386 ft | 398 kts | 205° |
| 2026-02-17 07:33 | 37.14766 | 140.46328 | 30843 ft | 396 kts | 205° |
| 2026-02-17 07:34 | 37.12118 | 140.45580 | 30332 ft | 394 kts | 205° |
| 2026-02-17 07:34 | 37.09455 | 140.44832 | 29834 ft | 391 kts | 205° |
| 2026-02-17 07:34 | 37.06811 | 140.44085 | 29372 ft | 388 kts | 205° |
| 2026-02-17 07:35 | 37.01665 | 140.42640 | 27871 ft | 369 kts | 205° |
| 2026-02-17 07:35 | 37.00001 | 140.42167 | 27131 ft | 370 kts | 204° |
| 2026-02-17 07:35 | 36.96638 | 140.41208 | 25672 ft | 372 kts | 203° |
| 2026-02-17 07:35 | 36.94114 | 140.40496 | 24709 ft | 370 kts | 203° |
| 2026-02-17 07:36 | 36.91611 | 140.39795 | 23773 ft | 367 kts | 202° |
| 2026-02-17 07:36 | 36.89963 | 140.39337 | 23182 ft | 365 kts | 202° |
| 2026-02-17 07:36 | 36.86677 | 140.38424 | 22079 ft | 358 kts | 201° |
| 2026-02-17 07:36 | 36.84259 | 140.37748 | 21236 ft | 354 kts | 201° |
| 2026-02-17 07:37 | 36.81868 | 140.37079 | 20385 ft | 351 kts | 201° |
| 2026-02-17 07:37 | 36.79500 | 140.36416 | 19500 ft | 347 kts | 201° |
| 2026-02-17 07:37 | 36.77161 | 140.35771 | 18676 ft | 342 kts | 201° |
| 2026-02-17 07:37 | 36.74847 | 140.35132 | 17825 ft | 338 kts | 201° |
| 2026-02-17 07:38 | 36.72535 | 140.34582 | 16934 ft | 338 kts | 198° |
| 2026-02-17 07:38 | 36.70225 | 140.34120 | 16129 ft | 334 kts | 196° |
| 2026-02-17 07:38 | 36.67942 | 140.33672 | 15384 ft | 328 kts | 196° |
| 2026-02-17 07:39 | 36.63688 | 140.32829 | 14649 ft | 299 kts | 196° |
| 2026-02-17 07:39 | 36.61669 | 140.32421 | 14289 ft | 290 kts | 196° |
| 2026-02-17 07:39 | 36.59667 | 140.32012 | 13964 ft | 296 kts | 195° |
| 2026-02-17 07:39 | 36.57573 | 140.31580 | 13623 ft | 316 kts | 195° |
| 2026-02-17 07:40 | 36.55344 | 140.31127 | 13216 ft | 330 kts | 194° |
| 2026-02-17 07:40 | 36.53053 | 140.30668 | 12690 ft | 335 kts | 193° |
| 2026-02-17 07:40 | 36.50752 | 140.30211 | 12266 ft | 333 kts | 193° |
| 2026-02-17 07:40 | 36.48510 | 140.29767 | 11821 ft | 316 kts | 193° |
| 2026-02-17 07:41 | 36.46353 | 140.29336 | 11466 ft | 312 kts | 192° |
| 2026-02-17 07:41 | 36.44219 | 140.28905 | 11091 ft | 307 kts | 193° |
| 2026-02-17 07:41 | 36.42260 | 140.28058 | 10714 ft | 294 kts | 216° |
| 2026-02-17 07:41 | 36.40813 | 140.26342 | 10425 ft | 284 kts | 236° |
| 2026-02-17 07:42 | 36.39894 | 140.24259 | 10334 ft | 268 kts | 251° |
| 2026-02-17 07:42 | 36.39395 | 140.22090 | 10224 ft | 256 kts | 257° |
| 2026-02-17 07:42 | 36.39008 | 140.19984 | 10111 ft | 245 kts | 257° |
| 2026-02-17 07:43 | 36.38234 | 140.15737 | 9756 ft | 264 kts | 257° |
| 2026-02-17 07:43 | 36.37814 | 140.13505 | 9430 ft | 267 kts | 256° |
| 2026-02-17 07:43 | 36.37384 | 140.11269 | 9083 ft | 265 kts | 256° |
| 2026-02-17 07:43 | 36.36952 | 140.09058 | 8749 ft | 262 kts | 256° |
| 2026-02-17 07:44 | 36.36528 | 140.06901 | 8521 ft | 255 kts | 256° |
| 2026-02-17 07:44 | 36.36118 | 140.04813 | 8398 ft | 244 kts | 256° |
| 2026-02-17 07:44 | 36.35631 | 140.02862 | 8220 ft | 231 kts | 240° |
| 2026-02-17 07:44 | 36.34547 | 140.01501 | 8075 ft | 218 kts | 209° |
| 2026-02-17 07:45 | 36.33115 | 140.00857 | 8025 ft | 223 kts | 192° |
| 2026-02-17 07:45 | 36.31540 | 140.00837 | 8024 ft | 232 kts | 174° |
| 2026-02-17 07:45 | 36.30475 | 140.01060 | 8030 ft | 236 kts | 171° |
| 2026-02-17 07:45 | 36.28315 | 140.01596 | 8012 ft | 235 kts | 171° |
| 2026-02-17 07:46 | 36.27255 | 140.01859 | 8005 ft | 234 kts | 171° |
| 2026-02-17 07:46 | 36.25127 | 140.02367 | 7997 ft | 232 kts | 171° |
| 2026-02-17 07:46 | 36.24083 | 140.02610 | 8001 ft | 230 kts | 171° |
| 2026-02-17 07:47 | 36.20957 | 140.03317 | 8003 ft | 227 kts | 172° |
| 2026-02-17 07:47 | 36.19398 | 140.03666 | 8008 ft | 228 kts | 172° |
| 2026-02-17 07:47 | 36.17867 | 140.04144 | 7995 ft | 230 kts | 152° |
| 2026-02-17 07:47 | 36.16667 | 140.05472 | 8032 ft | 236 kts | 130° |
| 2026-02-17 07:48 | 36.15261 | 140.07594 | 8018 ft | 242 kts | 131° |
| 2026-02-17 07:48 | 36.14538 | 140.08676 | 8007 ft | 240 kts | 131° |
| 2026-02-17 07:48 | 36.13477 | 140.10261 | 8000 ft | 238 kts | 131° |
| 2026-02-17 07:48 | 36.12429 | 140.11823 | 8000 ft | 235 kts | 131° |
| 2026-02-17 07:49 | 36.11401 | 140.13354 | 7996 ft | 232 kts | 131° |
| 2026-02-17 07:49 | 36.10359 | 140.14871 | 8005 ft | 231 kts | 138° |
| 2026-02-17 07:49 | 36.09007 | 140.15912 | 8043 ft | 232 kts | 158° |
| 2026-02-17 07:49 | 36.07522 | 140.16741 | 8076 ft | 235 kts | 157° |
| 2026-02-17 07:50 | 36.06058 | 140.17595 | 8004 ft | 228 kts | 156° |
| 2026-02-17 07:50 | 36.04644 | 140.18429 | 7995 ft | 224 kts | 156° |
| 2026-02-17 07:50 | 36.03245 | 140.19256 | 8009 ft | 223 kts | 156° |
| 2026-02-17 07:51 | 36.00322 | 140.20046 | 8019 ft | 215 kts | 182° |
| 2026-02-17 07:51 | 35.98813 | 140.20056 | 8019 ft | 219 kts | 181° |
| 2026-02-17 07:51 | 35.97284 | 140.20083 | 8021 ft | 221 kts | 181° |
| 2026-02-17 07:51 | 35.95734 | 140.20117 | 8020 ft | 224 kts | 181° |
| 2026-02-17 07:52 | 35.94164 | 140.20152 | 8019 ft | 226 kts | 181° |
| 2026-02-17 07:52 | 35.92608 | 140.20188 | 8004 ft | 221 kts | 181° |
| 2026-02-17 07:52 | 35.91120 | 140.19960 | 7990 ft | 214 kts | 206° |
| 2026-02-17 07:52 | 35.90002 | 140.18827 | 7970 ft | 215 kts | 236° |
| 2026-02-17 07:53 | 35.89289 | 140.17184 | 7858 ft | 219 kts | 246° |
| 2026-02-17 07:53 | 35.88696 | 140.15460 | 7732 ft | 217 kts | 248° |
| 2026-02-17 07:53 | 35.88125 | 140.13749 | 7612 ft | 214 kts | 248° |
| 2026-02-17 07:53 | 35.87561 | 140.12064 | 7493 ft | 212 kts | 248° |
| 2026-02-17 07:54 | 35.86427 | 140.08700 | 7305 ft | 213 kts | 248° |
| 2026-02-17 07:54 | 35.85854 | 140.07015 | 7200 ft | 214 kts | 248° |
| 2026-02-17 07:55 | 35.84695 | 140.03629 | 6985 ft | 215 kts | 248° |
| 2026-02-17 07:55 | 35.84113 | 140.01936 | 6885 ft | 215 kts | 248° |
| 2026-02-17 07:55 | 35.83530 | 140.00241 | 6772 ft | 215 kts | 248° |
| 2026-02-17 07:55 | 35.82968 | 139.98614 | 6676 ft | 215 kts | 248° |
| 2026-02-17 07:56 | 35.82384 | 139.96924 | 6571 ft | 215 kts | 248° |
| 2026-02-17 07:56 | 35.81799 | 139.95232 | 6457 ft | 214 kts | 248° |
| 2026-02-17 07:56 | 35.81217 | 139.93550 | 6356 ft | 213 kts | 248° |
| 2026-02-17 07:56 | 35.80635 | 139.91874 | 6253 ft | 212 kts | 248° |
| 2026-02-17 07:57 | 35.80056 | 139.90204 | 6149 ft | 211 kts | 248° |
| 2026-02-17 07:57 | 35.79490 | 139.88539 | 6038 ft | 208 kts | 253° |
| 2026-02-17 07:57 | 35.79462 | 139.86811 | 5869 ft | 203 kts | 289° |
| 2026-02-17 07:57 | 35.79939 | 139.85157 | 5731 ft | 210 kts | 290° |
| 2026-02-17 07:58 | 35.80409 | 139.83456 | 5567 ft | 213 kts | 289° |
| 2026-02-17 07:58 | 35.80883 | 139.81744 | 5374 ft | 210 kts | 289° |
| 2026-02-17 07:58 | 35.81247 | 139.80043 | 5169 ft | 201 kts | 282° |
| 2026-02-17 07:59 | 35.81702 | 139.76759 | 4836 ft | 193 kts | 281° |
| 2026-02-17 07:59 | 35.81927 | 139.75132 | 4661 ft | 192 kts | 281° |
| 2026-02-17 07:59 | 35.82144 | 139.73521 | 4499 ft | 190 kts | 277° |
| 2026-02-17 07:59 | 35.82190 | 139.71896 | 4332 ft | 190 kts | 271° |
| 2026-02-17 08:00 | 35.82179 | 139.70264 | 4180 ft | 191 kts | 271° |
| 2026-02-17 08:00 | 35.82168 | 139.68632 | 4094 ft | 190 kts | 270° |
| 2026-02-17 08:00 | 35.82156 | 139.66999 | 4046 ft | 191 kts | 271° |
| 2026-02-17 08:00 | 35.82091 | 139.65367 | 4000 ft | 190 kts | 256° |
| 2026-02-17 08:01 | 35.81398 | 139.64014 | 4020 ft | 191 kts | 216° |
| 2026-02-17 08:01 | 35.80172 | 139.63507 | 4020 ft | 191 kts | 180° |
| 2026-02-17 08:01 | 35.78818 | 139.63515 | 4028 ft | 194 kts | 177° |
| 2026-02-17 08:01 | 35.77523 | 139.63901 | 4005 ft | 192 kts | 152° |
| 2026-02-17 08:02 | 35.76354 | 139.64671 | 4019 ft | 194 kts | 150° |
| 2026-02-17 08:02 | 35.75190 | 139.65456 | 3995 ft | 187 kts | 149° |
| 2026-02-17 08:02 | 35.74071 | 139.66239 | 4008 ft | 182 kts | 149° |
| 2026-02-17 08:03 | 35.71833 | 139.67828 | 3621 ft | 188 kts | 148° |
| 2026-02-17 08:03 | 35.70716 | 139.68621 | 3365 ft | 183 kts | 148° |
| 2026-02-17 08:03 | 35.69645 | 139.69383 | 3109 ft | 172 kts | 147° |
| 2026-02-17 08:03 | 35.68594 | 139.70133 | 2912 ft | 178 kts | 147° |
| 2026-02-17 08:04 | 35.67536 | 139.70885 | 2662 ft | 172 kts | 148° |
| 2026-02-17 08:04 | 35.66538 | 139.71593 | 2420 ft | 161 kts | 147° |
| 2026-02-17 08:04 | 35.65578 | 139.72276 | 2194 ft | 161 kts | 148° |
| 2026-02-17 08:04 | 35.64613 | 139.72962 | 1962 ft | 159 kts | 148° |
| 2026-02-17 08:05 | 35.63669 | 139.73633 | 1731 ft | 155 kts | 148° |
| 2026-02-17 08:05 | 35.62737 | 139.74296 | 1521 ft | 155 kts | 148° |
| 2026-02-17 08:05 | 35.61813 | 139.74952 | 1320 ft | 152 kts | 148° |
| 2026-02-17 08:05 | 35.60896 | 139.75602 | 1094 ft | 152 kts | 148° |
| 2026-02-17 08:06 | 35.59984 | 139.76250 | 894 ft | 151 kts | 148° |
| 2026-02-17 08:06 | 35.59068 | 139.76899 | 691 ft | 152 kts | 148° |
| 2026-02-17 08:06 | 35.58145 | 139.77553 | 488 ft | 155 kts | 149° |
| 2026-02-17 08:07 | 35.56270 | 139.78873 | 96 ft | 155 kts | 148° |
| 2026-02-17 08:07 | 35.55372 | 139.79516 | 34 ft | 139 kts | 149° |
| 2026-02-17 08:07 | 35.54686 | 139.80002 | 33 ft | 82 kts | 150° |
| 2026-02-17 08:07 | 35.54397 | 139.80207 | 32 ft | 16 kts | 159° |
| 2026-02-17 08:08 | 35.54325 | 139.80205 | 31 ft | 11 kts | 212° |
| 2026-02-17 08:08 | 35.54277 | 139.80120 | 27 ft | 13 kts | 238° |
| 2026-02-17 08:08 | 35.54287 | 139.80023 | 29 ft | 14 kts | 319° |
| 2026-02-17 08:08 | 35.54396 | 139.79957 | 25 ft | 22 kts | 329° |
| 2026-02-17 08:09 | 35.54529 | 139.79868 | 27 ft | 22 kts | 330° |
| 2026-02-17 08:09 | 35.54657 | 139.79772 | 29 ft | 22 kts | 326° |
| 2026-02-17 08:09 | 35.54786 | 139.79678 | 30 ft | 22 kts | 316° |
| 2026-02-17 08:09 | 35.54753 | 139.79522 | 31 ft | 20 kts | 237° |
| 2026-02-17 08:10 | 35.54681 | 139.79373 | 32 ft | 20 kts | 239° |
| 2026-02-17 08:10 | 35.54608 | 139.79226 | 37 ft | 20 kts | 238° |
| 2026-02-17 08:10 | 35.54539 | 139.79075 | 43 ft | 20 kts | 240° |
| 2026-02-17 08:11 | 35.54478 | 139.78835 | 38 ft | 10 kts | 336° |
| 2026-02-17 08:11 | 35.54536 | 139.78794 | 36 ft | 8 kts | 329° |
| 2026-02-17 08:11 | 35.54563 | 139.78775 | 35 ft | 0 kts | 330° |